Terminal Aerodrome Forecast
Issued by NWS Twin Cities, MN

Home | Current Version | Previous Version | Graphics & Text | Print | Product List | Glossary On
Versions: 1 2 3 4 5 6 7 8 9 10 11 12 13 14 15 16 17 18 19 20 21 22 23 24 25
000
FTUS43 KMPX 311120
TAFMSP
TAF
KMSP 311120Z 3112/0118 29006KT P6SM SKC
     FM311500 30014G23KT P6SM SKC
     FM010100 29007KT P6SM FEW250
     FM010600 30003KT P6SM FEW250
     FM011400 29007KT P6SM SCT120 BKN250=

USA.gov is the U.S. government's official web portal to all federal, state and local government web resources and services.